Time;durP1;ratioP1;P1;durP2;ratioP2;P2;SDS_P1;SDS_P2;PMS_P1;PMS_P2;Temp;Humidity;BMP_temperature;BMP_pressure;BME280_temperature;BME280_humidity;BME280_pressure;Samples;Min_cycle;Max_cycle;Signal;HPM_P1;HPM_P2
2021/08/28 00:01:33;;;;;;;;;;;;;;;;;;5134510;27;19935;-68
2021/08/28 00:03:59;;;;;;;;;;;;;;;;;;5134611;27;20290;-68
2021/08/28 00:06:26;;;;;;;;;;;;;;;;;;5134415;27;20349;-68
2021/08/28 00:08:52;;;;;;;;;;;;;;;;;;5134135;27;19924;-68
2021/08/28 00:11:18;;;;;;;;;;;;;;;;;;5134632;27;19923;-68
2021/08/28 00:13:45;;;;;;;;;;;;;;;;;;5134079;27;19924;-68
2021/08/28 00:16:11;;;;;;;;;;;;;;;;;;5133688;27;19962;-68
2021/08/28 00:18:37;;;;;;;;;;;;;;;;;;5134543;27;19923;-68
2021/08/28 00:21:04;;;;;;;;;;;;;;;;;;5133767;27;20365;-68
2021/08/28 00:23:30;;;;;;;;;;;;;;;;;;5134102;27;19923;-68
2021/08/28 00:25:56;;;;;;;;;;;;;;;;;;5134207;27;19946;-68
2021/08/28 00:28:22;;;;;;;;;;;;;;;;;;5134082;27;19924;-68
2021/08/28 00:30:49;;;;;;;;;;;;;;;;;;5133907;27;19924;-68
2021/08/28 00:33:15;;;;;;;;;;;;;;;;;;5134300;27;20302;-68
2021/08/28 00:35:41;;;;;;;;;;;;;;;;;;5133693;27;19923;-68
2021/08/28 00:38:08;;;;;;;;;;;;;;;;;;5134136;27;19924;-68
2021/08/28 00:40:34;;;;;;;;;;;;;;;;;;5134159;27;20274;-68
2021/08/28 00:43:00;;;;;;;;;;;;;;;;;;5133482;27;19927;-68
2021/08/28 00:45:27;;;;;;;;;;;;;;;;;;5134134;27;19946;-69
2021/08/28 00:47:53;;;;;;;;;;;;;;;;;;5133477;27;19928;-67
2021/08/28 00:50:19;;;;;;;;;;;;;;;;;;5133879;27;19923;-67
2021/08/28 00:52:45;;;;;;;;;;;;;;;;;;5133667;27;19927;-68
2021/08/28 00:55:12;;;;;;;;;;;;;;;;;;5133646;27;19931;-67
2021/08/28 00:57:38;;;;;;;;;;;;;;;;;;5133936;27;19924;-67
2021/08/28 01:00:04;;;;;;;;;;;;;;;;;;5133165;27;20381;-67
2021/08/28 01:02:31;;;;;;;;;;;;;;;;;;5133595;27;19923;-67
2021/08/28 01:04:57;;;;;;;;;;;;;;;;;;5133430;27;19923;-68
2021/08/28 01:07:23;;;;;;;;;;;;;;;;;;5133511;27;19934;-67
2021/08/28 01:09:49;;;;;;;;;;;;;;;;;;5133464;27;19952;-68
2021/08/28 01:12:16;;;;;;;;;;;;;;;;;;5133388;28;20293;-68
2021/08/28 01:14:42;;;;;;;;;;;;;;;;;;5132990;28;19931;-68
2021/08/28 01:17:08;;;;;;;;;;;;;;;;;;5133752;28;19923;-68
2021/08/28 01:19:35;;;;;;;;;;;;;;;;;;5133375;28;19930;-67
2021/08/28 01:22:01;;;;;;;;;;;;;;;;;;5132975;28;19930;-66
2021/08/28 01:24:27;;;;;;;;;;;;;;;;;;5133656;28;19938;-67
2021/08/28 01:26:54;;;;;;;;;;;;;;;;;;5132974;27;20378;-67
2021/08/28 01:29:20;;;;;;;;;;;;;;;;;;5136913;27;19923;-67
2021/08/28 01:31:46;;;;;;;;;;;;;;;;;;5137503;27;19946;-67
2021/08/28 01:34:12;;;;;;;;;;;;;;;;;;5137386;27;19937;-68
2021/08/28 01:36:39;;;;;;;;;;;;;;;;;;5137652;27;19930;-67
2021/08/28 01:39:05;;;;;;;;;;;;;;;;;;5137566;27;20019;-67
2021/08/28 01:41:31;;;;;;;;;;;;;;;;;;5137295;27;20408;-67
2021/08/28 01:43:58;;;;;;;;;;;;;;;;;;5137341;27;19923;-68
2021/08/28 01:46:24;;;;;;;;;;;;;;;;;;5137353;27;19934;-67
2021/08/28 01:48:50;;;;;;;;;;;;;;;;;;5137252;27;19927;-67
2021/08/28 01:51:17;;;;;;;;;;;;;;;;;;5137415;27;19923;-67
2021/08/28 01:53:43;;;;;;;;;;;;;;;;;;5136853;27;19931;-67
2021/08/28 01:56:10;;;;;;;;;;;;;;;;;;5137295;27;19952;-67
2021/08/28 01:58:37;;;;;;;;;;;;;;;;;;5137224;27;19923;-68
2021/08/28 02:01:03;;;;;;;;;;;;;;;;;;5136736;27;20385;-68
2021/08/28 02:03:29;;;;;;;;;;;;;;;;;;5136909;27;19923;-68
2021/08/28 02:05:55;;;;;;;;;;;;;;;;;;5136837;27;19923;-67
2021/08/28 02:08:22;;;;;;;;;;;;;;;;;;5136739;27;19930;-67
2021/08/28 02:10:51;;;;;;;;;;;;;;;;;;5136681;27;19924;-67
2021/08/28 02:13:17;;;;;;;;;;;;;;;;;;5136935;27;19988;-67
2021/08/28 02:15:43;;;;;;;;;;;;;;;;;;5136430;27;19949;-67
2021/08/28 02:18:10;;;;;;;;;;;;;;;;;;5136925;27;19923;-67
2021/08/28 02:20:36;;;;;;;;;;;;;;;;;;5136523;27;20296;-67
2021/08/28 02:23:02;;;;;;;;;;;;;;;;;;5135002;28;19931;-67
2021/08/28 02:25:28;;;;;;;;;;;;;;;;;;5135560;28;19930;-67
2021/08/28 02:27:55;;;;;;;;;;;;;;;;;;5134868;28;20436;-67
2021/08/28 02:30:21;;;;;;;;;;;;;;;;;;5135287;28;19923;-67
2021/08/28 02:32:47;;;;;;;;;;;;;;;;;;5135202;28;20024;-67
2021/08/28 02:35:14;;;;;;;;;;;;;;;;;;5135070;28;19930;-68
2021/08/28 02:37:40;;;;;;;;;;;;;;;;;;5135133;28;19931;-67
2021/08/28 02:40:06;;;;;;;;;;;;;;;;;;5134506;27;20301;-67
2021/08/28 02:42:33;;;;;;;;;;;;;;;;;;5134878;28;19923;-67
2021/08/28 02:44:59;;;;;;;;;;;;;;;;;;5134993;28;19923;-67
2021/08/28 02:47:25;;;;;;;;;;;;;;;;;;5134886;28;20405;-68
2021/08/28 02:49:52;;;;;;;;;;;;;;;;;;5134599;28;20381;-68
2021/08/28 02:52:18;;;;;;;;;;;;;;;;;;5134674;28;19923;-67
2021/08/28 02:54:44;;;;;;;;;;;;;;;;;;5134777;28;19946;-67
2021/08/28 02:57:10;;;;;;;;;;;;;;;;;;5134765;28;20377;-67
2021/08/28 02:59:37;;;;;;;;;;;;;;;;;;5135028;28;19924;-68
2021/08/28 03:02:03;;;;;;;;;;;;;;;;;;5134569;28;19949;-67
2021/08/28 03:04:30;;;;;;;;;;;;;;;;;;5134924;28;19923;-66
2021/08/28 03:06:56;;;;;;;;;;;;;;;;;;5134323;28;19934;-67
2021/08/28 03:09:22;;;;;;;;;;;;;;;;;;5134731;28;19924;-67
2021/08/28 03:11:48;;;;;;;;;;;;;;;;;;5134197;28;20319;-67
2021/08/28 03:14:15;;;;;;;;;;;;;;;;;;5134473;28;19923;-67
2021/08/28 03:16:41;;;;;;;;;;;;;;;;;;5134327;28;19923;-67
2021/08/28 03:19:07;;;;;;;;;;;;;;;;;;5134392;28;20401;-66
2021/08/28 03:21:34;;;;;;;;;;;;;;;;;;5060174;27;2085810;-67
2021/08/28 03:24:00;;;;;;;;;;;;;;;;;;5135370;27;19933;-67
2021/08/28 03:26:26;;;;;;;;;;;;;;;;;;5135240;27;20303;-67
2021/08/28 03:28:53;;;;;;;;;;;;;;;;;;5134890;27;19924;-67
2021/08/28 03:31:19;;;;;;;;;;;;;;;;;;5135446;27;19923;-67
2021/08/28 03:33:45;;;;;;;;;;;;;;;;;;5134863;27;19930;-66
2021/08/28 03:36:12;;;;;;;;;;;;;;;;;;5135087;27;19924;-68
2021/08/28 03:38:38;;;;;;;;;;;;;;;;;;5135162;27;19953;-67
2021/08/28 03:41:04;;;;;;;;;;;;;;;;;;5135012;27;19923;-67
2021/08/28 03:43:32;;;;;;;;;;;;;;;;;;5135285;27;19931;-68
2021/08/28 03:45:58;;;;;;;;;;;;;;;;;;5135018;27;20277;-67
2021/08/28 03:48:25;;;;;;;;;;;;;;;;;;5134856;27;19923;-67
2021/08/28 03:50:51;;;;;;;;;;;;;;;;;;5133908;27;19923;-67
2021/08/28 03:53:17;;;;;;;;;;;;;;;;;;5134747;27;20285;-67
2021/08/28 03:55:44;;;;;;;;;;;;;;;;;;5134763;27;19930;-67
2021/08/28 03:58:10;;;;;;;;;;;;;;;;;;5134984;27;19981;-67
2021/08/28 04:00:36;;;;;;;;;;;;;;;;;;5134517;27;19934;-67
2021/08/28 04:03:03;;;;;;;;;;;;;;;;;;5134322;27;19930;-67
2021/08/28 04:05:29;;;;;;;;;;;;;;;;;;5134819;27;19923;-68
2021/08/28 04:07:55;;;;;;;;;;;;;;;;;;5134182;27;19923;-68
2021/08/28 04:10:21;;;;;;;;;;;;;;;;;;5134731;27;19930;-68
2021/08/28 04:12:48;;;;;;;;;;;;;;;;;;5134261;27;19927;-68
2021/08/28 04:15:14;;;;;;;;;;;;;;;;;;5134237;27;19938;-68
2021/08/28 04:17:40;;;;;;;;;;;;;;;;;;5134327;27;19923;-68
2021/08/28 04:20:07;;;;;;;;;;;;;;;;;;5134238;27;20377;-68
2021/08/28 04:22:33;;;;;;;;;;;;;;;;;;5134057;27;19923;-68
2021/08/28 04:24:59;;;;;;;;;;;;;;;;;;5134163;27;19924;-68
2021/08/28 04:27:25;;;;;;;;;;;;;;;;;;5134009;27;19931;-68
2021/08/28 04:29:52;;;;;;;;;;;;;;;;;;5134079;27;19923;-68
2021/08/28 04:32:18;;;;;;;;;;;;;;;;;;5133959;27;20373;-68
2021/08/28 04:34:44;;;;;;;;;;;;;;;;;;5133953;27;19930;-67
2021/08/28 04:37:11;;;;;;;;;;;;;;;;;;5134144;27;19946;-67
2021/08/28 04:39:38;;;;;;;;;;;;;;;;;;5133894;27;19927;-68
2021/08/28 04:42:05;;;;;;;;;;;;;;;;;;5134166;27;19927;-67
2021/08/28 04:44:31;;;;;;;;;;;;;;;;;;5134126;27;19930;-68
2021/08/28 04:46:57;;;;;;;;;;;;;;;;;;5133425;27;19930;-67
2021/08/28 04:49:24;;;;;;;;;;;;;;;;;;5133943;27;19923;-67
2021/08/28 04:51:50;;;;;;;;;;;;;;;;;;5133390;27;20291;-67
2021/08/28 04:54:16;;;;;;;;;;;;;;;;;;5133688;27;19924;-68
2021/08/28 04:56:43;;;;;;;;;;;;;;;;;;5133634;27;19923;-69
2021/08/28 04:59:09;;;;;;;;;;;;;;;;;;5133928;27;19993;-68
2021/08/28 05:01:35;;;;;;;;;;;;;;;;;;5133455;27;19931;-68
2021/08/28 05:04:01;;;;;;;;;;;;;;;;;;5133513;27;19931;-69
2021/08/28 05:06:28;;;;;;;;;;;;;;;;;;5133806;27;19946;-68
2021/08/28 05:08:54;;;;;;;;;;;;;;;;;;5133021;27;19923;-69
2021/08/28 05:11:20;;;;;;;;;;;;;;;;;;5133719;27;19923;-69
2021/08/28 05:13:47;;;;;;;;;;;;;;;;;;5133176;27;19935;-68
2021/08/28 05:16:13;;;;;;;;;;;;;;;;;;5133661;28;19930;-69
2021/08/28 05:18:39;;;;;;;;;;;;;;;;;;5133699;28;19923;-69
2021/08/28 05:21:05;;;;;;;;;;;;;;;;;;5133075;28;19930;-69
2021/08/28 05:23:32;;;;;;;;;;;;;;;;;;5133533;28;19932;-71
2021/08/28 05:25:58;;;;;;;;;;;;;;;;;;5132983;28;20299;-70
2021/08/28 05:28:24;;;;;;;;;;;;;;;;;;5133194;28;19931;-71
2021/08/28 05:30:51;;;;;;;;;;;;;;;;;;5133346;28;20024;-71
2021/08/28 05:33:17;;;;;;;;;;;;;;;;;;5133104;28;20281;-68
2021/08/28 05:35:43;;;;;;;;;;;;;;;;;;5132889;28;19924;-68
2021/08/28 05:38:10;;;;;;;;;;;;;;;;;;5133559;28;19923;-68
2021/08/28 05:40:36;;;;;;;;;;;;;;;;;;5133208;28;20381;-68
2021/08/28 05:43:02;;;;;;;;;;;;;;;;;;5132939;28;19923;-68
2021/08/28 05:45:28;;;;;;;;;;;;;;;;;;5133277;28;19924;-68
2021/08/28 05:47:55;;;;;;;;;;;;;;;;;;5132884;28;19923;-68
2021/08/28 05:50:21;;;;;;;;;;;;;;;;;;5133410;28;19931;-68
2021/08/28 05:52:47;;;;;;;;;;;;;;;;;;5133053;28;19927;-67
2021/08/28 05:55:14;;;;;;;;;;;;;;;;;;5133359;28;20407;-68
2021/08/28 05:57:40;;;;;;;;;;;;;;;;;;5132789;28;20013;-68
2021/08/28 06:00:07;;;;;;;;;;;;;;;;;;5133267;28;19931;-68
2021/08/28 06:02:33;;;;;;;;;;;;;;;;;;5133265;28;20293;-68
2021/08/28 06:04:59;;;;;;;;;;;;;;;;;;5132745;28;19931;-68
2021/08/28 06:07:26;;;;;;;;;;;;;;;;;;5133292;28;19923;-69
2021/08/28 06:09:52;;;;;;;;;;;;;;;;;;5132451;28;19924;-69
2021/08/28 06:12:18;;;;;;;;;;;;;;;;;;5132847;28;19924;-68
2021/08/28 06:14:44;;;;;;;;;;;;;;;;;;5134833;27;19924;-69
2021/08/28 06:17:11;;;;;;;;;;;;;;;;;;5136654;27;20415;-68
2021/08/28 06:19:37;;;;;;;;;;;;;;;;;;5136916;27;19928;-68
2021/08/28 06:22:03;;;;;;;;;;;;;;;;;;5136120;27;20286;-68
2021/08/28 06:24:30;;;;;;;;;;;;;;;;;;5136418;27;19923;-71
2021/08/28 06:26:56;;;;;;;;;;;;;;;;;;5122817;27;19924;-71
2021/08/28 06:29:22;;;;;;;;;;;;;;;;;;5102609;27;19923;-73
2021/08/28 06:31:49;;;;;;;;;;;;;;;;;;5124078;27;19928;-73
2021/08/28 06:34:15;;;;;;;;;;;;;;;;;;5115886;27;19924;-73
2021/08/28 06:36:41;;;;;;;;;;;;;;;;;;5094979;28;19924;-71
2021/08/28 06:39:08;;;;;;;;;;;;;;;;;;5113191;28;19928;-72
2021/08/28 06:41:34;;;;;;;;;;;;;;;;;;5115605;28;20370;-71
2021/08/28 06:44:00;;;;;;;;;;;;;;;;;;5097098;28;19928;-73
2021/08/28 06:46:27;;;;;;;;;;;;;;;;;;5102728;28;19924;-70
2021/08/28 06:48:53;;;;;;;;;;;;;;;;;;5114932;28;19970;-70
2021/08/28 06:51:20;;;;;;;;;;;;;;;;;;5115641;28;19930;-69
2021/08/28 06:53:49;;;;;;;;;;;;;;;;;;5114939;28;20393;-69
2021/08/28 06:56:15;;;;;;;;;;;;;;;;;;5115639;28;19927;-71
2021/08/28 06:58:41;;;;;;;;;;;;;;;;;;5115335;28;19955;-70
2021/08/28 07:01:08;;;;;;;;;;;;;;;;;;5095697;28;19939;-70
2021/08/28 07:03:34;;;;;;;;;;;;;;;;;;5102451;28;19930;-70
2021/08/28 07:06:00;;;;;;;;;;;;;;;;;;5114876;28;20467;-70
2021/08/28 07:08:26;;;;;;;;;;;;;;;;;;5115098;28;19924;-70
2021/08/28 07:10:53;;;;;;;;;;;;;;;;;;5115115;28;19924;-71
2021/08/28 07:13:19;;;;;;;;;;;;;;;;;;5114851;28;20289;-70
2021/08/28 07:15:45;;;;;;;;;;;;;;;;;;5114433;28;19931;-70
2021/08/28 07:18:12;;;;;;;;;;;;;;;;;;5115174;28;19931;-70
2021/08/28 07:20:38;;;;;;;;;;;;;;;;;;5114675;28;19928;-70
2021/08/28 07:23:04;;;;;;;;;;;;;;;;;;5114920;28;19924;-71
2021/08/28 07:25:31;;;;;;;;;;;;;;;;;;5113788;28;19923;-71
2021/08/28 07:27:57;;;;;;;;;;;;;;;;;;5114725;28;19950;-70
2021/08/28 07:30:23;;;;;;;;;;;;;;;;;;5115001;28;19947;-70
2021/08/28 07:32:49;;;;;;;;;;;;;;;;;;5114293;28;19931;-70
2021/08/28 07:35:16;;;;;;;;;;;;;;;;;;5096253;28;19926;-70
2021/08/28 07:37:42;;;;;;;;;;;;;;;;;;5101957;28;20346;-70
2021/08/28 07:40:08;;;;;;;;;;;;;;;;;;5114607;28;19928;-71
2021/08/28 07:42:35;;;;;;;;;;;;;;;;;;5114782;28;20285;-70
2021/08/28 07:45:01;;;;;;;;;;;;;;;;;;5114039;28;19923;-71
2021/08/28 07:47:27;;;;;;;;;;;;;;;;;;5114426;28;19924;-71
2021/08/28 07:49:54;;;;;;;;;;;;;;;;;;5113909;28;20014;-71
2021/08/28 07:52:20;;;;;;;;;;;;;;;;;;5114016;28;20365;-72
2021/08/28 07:54:46;;;;;;;;;;;;;;;;;;5113925;28;19923;-71
2021/08/28 07:57:13;;;;;;;;;;;;;;;;;;5114059;28;19969;-72
2021/08/28 07:59:39;;;;;;;;;;;;;;;;;;5114483;28;19928;-70
2021/08/28 08:02:05;;;;;;;;;;;;;;;;;;5113922;28;19931;-67
2021/08/28 08:04:31;;;;;;;;;;;;;;;;;;5114326;28;19923;-68
2021/08/28 08:06:58;;;;;;;;;;;;;;;;;;5114030;28;19946;-68
2021/08/28 08:09:24;;;;;;;;;;;;;;;;;;5113823;28;19924;-68
2021/08/28 08:11:50;;;;;;;;;;;;;;;;;;5113858;28;19923;-68
2021/08/28 08:14:17;;;;;;;;;;;;;;;;;;5113808;28;20408;-68
2021/08/28 08:16:43;;;;;;;;;;;;;;;;;;5113847;28;19924;-69
2021/08/28 08:19:09;;;;;;;;;;;;;;;;;;5113671;28;20405;-68
2021/08/28 08:21:35;;;;;;;;;;;;;;;;;;5113537;28;19924;-68
2021/08/28 08:24:02;;;;;;;;;;;;;;;;;;5113532;28;19931;-68
2021/08/28 08:26:28;;;;;;;;;;;;;;;;;;5113640;28;19924;-69
2021/08/28 08:28:54;;;;;;;;;;;;;;;;;;5113665;28;19923;-68
2021/08/28 08:31:21;;;;;;;;;;;;;;;;;;5113441;28;20294;-68
2021/08/28 08:33:47;;;;;;;;;;;;;;;;;;5113202;28;19924;-68
2021/08/28 08:36:13;;;;;;;;;;;;;;;;;;5113315;28;20026;-68
2021/08/28 08:38:40;;;;;;;;;;;;;;;;;;5113144;28;19928;-68
2021/08/28 08:41:06;;;;;;;;;;;;;;;;;;5113359;28;20386;-68
2021/08/28 08:43:32;;;;;;;;;;;;;;;;;;5113353;28;19924;-68
2021/08/28 08:45:59;;;;;;;;;;;;;;;;;;5113273;28;19953;-68
2021/08/28 08:48:25;;;;;;;;;;;;;;;;;;5113222;28;19924;-68
2021/08/28 08:50:51;;;;;;;;;;;;;;;;;;5113269;28;19923;-68
2021/08/28 08:53:18;;;;;;;;;;;;;;;;;;5113414;28;19924;-69
2021/08/28 08:55:44;;;;;;;;;;;;;;;;;;5112796;28;20340;-68
2021/08/28 08:58:10;;;;;;;;;;;;;;;;;;5113084;28;19928;-69
2021/08/28 09:00:37;;;;;;;;;;;;;;;;;;5113361;28;19924;-67
2021/08/28 09:03:03;;;;;;;;;;;;;;;;;;5112704;28;20294;-67
2021/08/28 09:05:29;;;;;;;;;;;;;;;;;;5113024;28;19938;-67
2021/08/28 09:07:55;;;;;;;;;;;;;;;;;;5113049;28;19924;-68
2021/08/28 09:10:22;;;;;;;;;;;;;;;;;;5112968;28;20410;-67
2021/08/28 09:12:48;;;;;;;;;;;;;;;;;;5112640;28;19924;-67
2021/08/28 09:15:15;;;;;;;;;;;;;;;;;;5112893;28;19924;-67
2021/08/28 09:17:41;;;;;;;;;;;;;;;;;;5112701;28;20385;-67
2021/08/28 09:20:08;;;;;;;;;;;;;;;;;;5112786;28;19930;-68
2021/08/28 09:22:35;;;;;;;;;;;;;;;;;;5112650;28;19931;-68
2021/08/28 09:25:01;;;;;;;;;;;;;;;;;;5112872;28;19936;-67
2021/08/28 09:27:27;;;;;;;;;;;;;;;;;;5112824;28;20404;-67
2021/08/28 09:29:53;;;;;;;;;;;;;;;;;;5112819;28;19924;-67
2021/08/28 09:32:20;;;;;;;;;;;;;;;;;;5112861;28;19924;-67
2021/08/28 09:34:46;;;;;;;;;;;;;;;;;;5112376;28;19931;-67
2021/08/28 09:37:12;;;;;;;;;;;;;;;;;;5112968;28;19923;-67
2021/08/28 09:39:39;;;;;;;;;;;;;;;;;;5112630;28;19924;-67
2021/08/28 09:42:05;;;;;;;;;;;;;;;;;;5112661;28;19931;-68
2021/08/28 09:44:31;;;;;;;;;;;;;;;;;;5112935;28;19981;-67
2021/08/28 09:46:57;;;;;;;;;;;;;;;;;;5112375;28;20420;-67
2021/08/28 09:49:25;;;;;;;;;;;;;;;;;;5114106;28;19931;-67
2021/08/28 09:51:51;;;;;;;;;;;;;;;;;;5116273;28;20381;-67
2021/08/28 09:54:17;;;;;;;;;;;;;;;;;;5116489;28;19930;-68
2021/08/28 09:56:44;;;;;;;;;;;;;;;;;;5116332;28;19925;-67
2021/08/28 09:59:10;;;;;;;;;;;;;;;;;;5116469;28;19931;-67
2021/08/28 10:01:37;;;;;;;;;;;;;;;;;;5116687;28;19923;-68
2021/08/28 10:04:04;;;;;;;;;;;;;;;;;;5116420;28;19972;-67
2021/08/28 10:06:30;;;;;;;;;;;;;;;;;;5116220;28;20389;-67
2021/08/28 10:08:56;;;;;;;;;;;;;;;;;;5116227;28;19931;-67
2021/08/28 10:11:22;;;;;;;;;;;;;;;;;;5116609;28;19946;-67
2021/08/28 10:13:49;;;;;;;;;;;;;;;;;;5115866;28;19927;-67
2021/08/28 10:16:15;;;;;;;;;;;;;;;;;;5116420;28;19924;-68
2021/08/28 10:18:41;;;;;;;;;;;;;;;;;;5116053;28;19927;-67
2021/08/28 10:21:08;;;;;;;;;;;;;;;;;;5115680;28;20388;-67
2021/08/28 10:23:34;;;;;;;;;;;;;;;;;;5116249;28;19923;-67
2021/08/28 10:26:00;;;;;;;;;;;;;;;;;;5115964;28;19927;-67
2021/08/28 10:28:26;;;;;;;;;;;;;;;;;;5116140;28;19938;-67
2021/08/28 10:30:53;;;;;;;;;;;;;;;;;;5115824;28;19930;-67
2021/08/28 10:33:19;;;;;;;;;;;;;;;;;;5115739;28;20289;-67
2021/08/28 10:35:45;;;;;;;;;;;;;;;;;;5115425;28;19923;-68
2021/08/28 10:38:12;;;;;;;;;;;;;;;;;;5115982;28;19973;-67
2021/08/28 10:40:38;;;;;;;;;;;;;;;;;;5115601;28;20370;-67
2021/08/28 10:43:04;;;;;;;;;;;;;;;;;;5115228;28;19923;-67
2021/08/28 10:45:31;;;;;;;;;;;;;;;;;;5115667;28;19923;-68
2021/08/28 10:47:57;;;;;;;;;;;;;;;;;;5115191;28;19924;-68
2021/08/28 10:50:23;;;;;;;;;;;;;;;;;;5115804;28;19930;-68
2021/08/28 10:52:50;;;;;;;;;;;;;;;;;;5115123;28;20435;-67
2021/08/28 10:55:16;;;;;;;;;;;;;;;;;;5115701;28;19968;-68
2021/08/28 10:57:42;;;;;;;;;;;;;;;;;;5114887;28;20374;-67
2021/08/28 11:00:09;;;;;;;;;;;;;;;;;;5115296;28;19924;-67
2021/08/28 11:02:35;;;;;;;;;;;;;;;;;;5115554;28;19928;-67
2021/08/28 11:05:01;;;;;;;;;;;;;;;;;;5114772;28;19924;-67
2021/08/28 11:07:28;;;;;;;;;;;;;;;;;;5115355;28;19924;-67
2021/08/28 11:09:54;;;;;;;;;;;;;;;;;;5114785;28;19973;-67
2021/08/28 11:12:20;;;;;;;;;;;;;;;;;;5115391;28;19924;-68
2021/08/28 11:14:47;;;;;;;;;;;;;;;;;;5114969;28;19930;-67
2021/08/28 11:17:13;;;;;;;;;;;;;;;;;;5114996;28;20373;-67
2021/08/28 11:19:39;;;;;;;;;;;;;;;;;;5115222;28;19992;-68
2021/08/28 11:22:05;;;;;;;;;;;;;;;;;;5114615;28;19931;-67
2021/08/28 11:24:32;;;;;;;;;;;;;;;;;;5114678;28;19928;-68
2021/08/28 11:26:58;;;;;;;;;;;;;;;;;;5114614;28;19924;-68
2021/08/28 11:29:24;;;;;;;;;;;;;;;;;;5114500;28;19930;-67
2021/08/28 11:31:51;;;;;;;;;;;;;;;;;;5114656;28;19924;-67
2021/08/28 11:34:17;;;;;;;;;;;;;;;;;;5114509;28;20262;-68
2021/08/28 11:36:43;;;;;;;;;;;;;;;;;;5114256;28;19930;-68
2021/08/28 11:39:10;;;;;;;;;;;;;;;;;;5114622;28;19924;-68
2021/08/28 11:41:36;;;;;;;;;;;;;;;;;;5114503;28;20259;-67
2021/08/28 11:44:02;;;;;;;;;;;;;;;;;;5114194;28;19928;-68
2021/08/28 11:46:28;;;;;;;;;;;;;;;;;;5114718;28;19924;-68
2021/08/28 11:48:55;;;;;;;;;;;;;;;;;;5114074;28;20362;-67
2021/08/28 11:51:21;;;;;;;;;;;;;;;;;;5114532;28;19931;-67
2021/08/28 11:53:47;;;;;;;;;;;;;;;;;;5114237;28;19924;-67
2021/08/28 11:56:14;;;;;;;;;;;;;;;;;;5114226;28;20393;-68
2021/08/28 11:58:40;;;;;;;;;;;;;;;;;;5114295;28;19931;-67
2021/08/28 12:01:06;;;;;;;;;;;;;;;;;;5114110;28;20290;-68
2021/08/28 12:03:32;;;;;;;;;;;;;;;;;;5114062;28;19928;-68
2021/08/28 12:05:59;;;;;;;;;;;;;;;;;;5114104;28;19931;-68
2021/08/28 12:08:25;;;;;;;;;;;;;;;;;;5113937;28;20381;-67
2021/08/28 12:10:51;;;;;;;;;;;;;;;;;;5113598;28;19931;-67
2021/08/28 12:13:18;;;;;;;;;;;;;;;;;;5113473;28;19924;-67
2021/08/28 12:15:44;;;;;;;;;;;;;;;;;;5113563;28;19923;-67
2021/08/28 12:18:10;;;;;;;;;;;;;;;;;;5114051;28;19928;-67
2021/08/28 12:20:37;;;;;;;;;;;;;;;;;;5113868;28;19923;-68
2021/08/28 12:23:03;;;;;;;;;;;;;;;;;;5113305;28;19937;-67
2021/08/28 12:25:29;;;;;;;;;;;;;;;;;;5113895;28;19924;-67
2021/08/28 12:27:55;;;;;;;;;;;;;;;;;;5113318;28;20389;-67
2021/08/28 12:30:22;;;;;;;;;;;;;;;;;;5113785;28;19924;-67
2021/08/28 12:32:48;;;;;;;;;;;;;;;;;;5113595;28;19959;-68
2021/08/28 12:35:14;;;;;;;;;;;;;;;;;;5113716;28;19924;-68
2021/08/28 12:37:41;;;;;;;;;;;;;;;;;;5113069;28;19932;-67
2021/08/28 12:40:09;;;;;;;;;;;;;;;;;;5113680;28;19924;-68
2021/08/28 12:42:35;;;;;;;;;;;;;;;;;;5113284;28;20010;-67
2021/08/28 12:45:01;;;;;;;;;;;;;;;;;;5113417;28;19924;-68
2021/08/28 12:47:29;;;;;;;;;;;;;;;;;;5113527;28;19930;-68
2021/08/28 12:49:55;;;;;;;;;;;;;;;;;;5113234;28;20393;-67
2021/08/28 12:52:22;;;;;;;;;;;;;;;;;;5113551;28;20005;-67
2021/08/28 12:54:48;;;;;;;;;;;;;;;;;;5112902;28;20275;-68
2021/08/28 12:57:14;;;;;;;;;;;;;;;;;;5113157;28;19924;-67
2021/08/28 12:59:41;;;;;;;;;;;;;;;;;;5113185;28;19924;-67
2021/08/28 13:02:07;;;;;;;;;;;;;;;;;;5113010;28;19931;-68
2021/08/28 13:04:33;;;;;;;;;;;;;;;;;;5113357;28;19927;-66
2021/08/28 13:06:59;;;;;;;;;;;;;;;;;;5112817;28;19924;-66
2021/08/28 13:09:26;;;;;;;;;;;;;;;;;;5113215;28;19924;-66
2021/08/28 13:11:52;;;;;;;;;;;;;;;;;;5112865;28;19924;-66
2021/08/28 13:14:18;;;;;;;;;;;;;;;;;;5112911;28;19924;-66
2021/08/28 13:16:45;;;;;;;;;;;;;;;;;;5113021;28;19924;-66
2021/08/28 13:19:12;;;;;;;;;;;;;;;;;;5113156;28;20306;-66
2021/08/28 13:21:38;;;;;;;;;;;;;;;;;;5112863;28;19923;-66
2021/08/28 13:24:04;;;;;;;;;;;;;;;;;;5115429;28;19931;-66
2021/08/28 13:26:31;;;;;;;;;;;;;;;;;;5117490;28;19924;-66
2021/08/28 13:28:57;;;;;;;;;;;;;;;;;;5116746;28;20390;-66
2021/08/28 13:31:23;;;;;;;;;;;;;;;;;;5117035;28;19927;-67
2021/08/28 13:33:50;;;;;;;;;;;;;;;;;;5116987;28;19927;-66
2021/08/28 13:36:16;;;;;;;;;;;;;;;;;;5116937;28;20297;-66
2021/08/28 13:38:42;;;;;;;;;;;;;;;;;;5116324;28;19924;-66
2021/08/28 13:41:09;;;;;;;;;;;;;;;;;;5117194;28;19927;-66
2021/08/28 13:43:35;;;;;;;;;;;;;;;;;;5116828;28;20381;-66
2021/08/28 13:46:01;;;;;;;;;;;;;;;;;;5116527;28;19928;-67
2021/08/28 13:48:27;;;;;;;;;;;;;;;;;;5116843;28;19923;-68
2021/08/28 13:50:54;;;;;;;;;;;;;;;;;;5116086;28;20377;-67
2021/08/28 13:53:20;;;;;;;;;;;;;;;;;;5116923;28;19931;-66
2021/08/28 13:55:46;;;;;;;;;;;;;;;;;;5116246;28;19924;-66
2021/08/28 13:58:13;;;;;;;;;;;;;;;;;;5116875;28;19924;-66
2021/08/28 14:00:39;;;;;;;;;;;;;;;;;;5116454;28;20400;-65
2021/08/28 14:03:05;;;;;;;;;;;;;;;;;;5116089;28;19931;-65
2021/08/28 14:05:32;;;;;;;;;;;;;;;;;;5116713;28;19931;-65
2021/08/28 14:07:58;;;;;;;;;;;;;;;;;;5116014;28;20432;-64
2021/08/28 14:10:24;;;;;;;;;;;;;;;;;;5116606;28;19928;-64
2021/08/28 14:12:51;;;;;;;;;;;;;;;;;;5115884;28;20289;-64
2021/08/28 14:15:17;;;;;;;;;;;;;;;;;;5116135;28;19924;-63
2021/08/28 14:17:43;;;;;;;;;;;;;;;;;;5116084;28;19931;-64
2021/08/28 14:20:09;;;;;;;;;;;;;;;;;;5116007;28;20393;-64
2021/08/28 14:22:36;;;;;;;;;;;;;;;;;;5115905;28;20381;-66
2021/08/28 14:25:02;;;;;;;;;;;;;;;;;;5115618;28;19923;-66
2021/08/28 14:27:28;;;;;;;;;;;;;;;;;;5116303;28;19924;-65
2021/08/28 14:29:55;;;;;;;;;;;;;;;;;;5115653;28;19935;-65
2021/08/28 14:32:21;;;;;;;;;;;;;;;;;;5116113;28;19924;-65
2021/08/28 14:34:47;;;;;;;;;;;;;;;;;;5114856;28;20294;-65
2021/08/28 14:37:13;;;;;;;;;;;;;;;;;;5115703;28;19931;-65
2021/08/28 14:39:40;;;;;;;;;;;;;;;;;;5115973;28;19924;-65
2021/08/28 14:42:06;;;;;;;;;;;;;;;;;;5115653;28;19924;-67
2021/08/28 14:44:32;;;;;;;;;;;;;;;;;;5115956;28;19924;-67
2021/08/28 14:46:59;;;;;;;;;;;;;;;;;;5115170;28;20377;-68
2021/08/28 14:49:25;;;;;;;;;;;;;;;;;;5115552;28;19934;-66
2021/08/28 14:51:51;;;;;;;;;;;;;;;;;;5115557;28;19924;-66
2021/08/28 14:54:18;;;;;;;;;;;;;;;;;;5115461;28;19931;-66
2021/08/28 14:56:44;;;;;;;;;;;;;;;;;;5115441;28;19924;-66
2021/08/28 14:59:10;;;;;;;;;;;;;;;;;;5115398;28;20293;-66
2021/08/28 15:01:36;;;;;;;;;;;;;;;;;;5115147;28;19931;-66
2021/08/28 15:04:03;;;;;;;;;;;;;;;;;;5115380;28;19923;-66
2021/08/28 15:06:29;;;;;;;;;;;;;;;;;;5115193;28;19923;-66
2021/08/28 15:08:55;;;;;;;;;;;;;;;;;;5115268;28;19934;-66
2021/08/28 15:11:22;;;;;;;;;;;;;;;;;;5115202;28;20426;-67
2021/08/28 15:13:48;;;;;;;;;;;;;;;;;;5114763;28;19924;-67
2021/08/28 15:16:14;;;;;;;;;;;;;;;;;;5115279;28;19924;-67
2021/08/28 15:18:40;;;;;;;;;;;;;;;;;;5114908;28;20366;-67
2021/08/28 15:21:07;;;;;;;;;;;;;;;;;;5115017;28;19924;-66
2021/08/28 15:23:33;;;;;;;;;;;;;;;;;;5109207;28;19924;-66
2021/08/28 15:26:00;;;;;;;;;;;;;;;;;;5096250;28;19924;-66
2021/08/28 15:28:26;;;;;;;;;;;;;;;;;;5114964;28;19928;-67
2021/08/28 15:30:52;;;;;;;;;;;;;;;;;;5107780;28;20417;-66
2021/08/28 15:33:18;;;;;;;;;;;;;;;;;;5094317;28;19931;-66
2021/08/28 15:35:45;;;;;;;;;;;;;;;;;;5094251;28;19924;-67
2021/08/28 15:38:11;;;;;;;;;;;;;;;;;;5094149;28;19924;-69
2021/08/28 15:40:37;;;;;;;;;;;;;;;;;;5111127;28;19924;-68
2021/08/28 15:43:04;;;;;;;;;;;;;;;;;;5114262;28;20404;-67
2021/08/28 15:45:30;;;;;;;;;;;;;;;;;;5114755;28;19924;-68
2021/08/28 15:47:56;;;;;;;;;;;;;;;;;;5113440;28;19927;-67
2021/08/28 15:50:22;;;;;;;;;;;;;;;;;;5114342;28;20366;-67
2021/08/28 15:52:49;;;;;;;;;;;;;;;;;;5113982;28;19923;-69
2021/08/28 15:55:15;;;;;;;;;;;;;;;;;;5114376;28;19924;-67
2021/08/28 15:57:41;;;;;;;;;;;;;;;;;;5096976;28;19931;-67
2021/08/28 16:00:08;;;;;;;;;;;;;;;;;;5094055;28;19931;-67
2021/08/28 16:02:34;;;;;;;;;;;;;;;;;;5093356;28;20298;-67
2021/08/28 16:05:07;;;;;;;;;;;;;;;;;;5093616;28;19924;-67
2021/08/28 16:07:33;;;;;;;;;;;;;;;;;;5093950;28;19928;-67
2021/08/28 16:09:59;;;;;;;;;;;;;;;;;;5093145;28;19924;-67
2021/08/28 16:12:26;;;;;;;;;;;;;;;;;;5093871;28;19924;-67
2021/08/28 16:14:52;;;;;;;;;;;;;;;;;;5093487;28;19923;-67
2021/08/28 16:17:18;;;;;;;;;;;;;;;;;;5093342;28;19924;-67
2021/08/28 16:19:44;;;;;;;;;;;;;;;;;;5093415;28;19924;-67
2021/08/28 16:22:11;;;;;;;;;;;;;;;;;;5093098;28;20397;-68
2021/08/28 16:24:37;;;;;;;;;;;;;;;;;;5093277;28;19936;-67
2021/08/28 16:27:03;;;;;;;;;;;;;;;;;;5093245;28;19931;-67
2021/08/28 16:29:30;;;;;;;;;;;;;;;;;;5093241;28;20546;-67
2021/08/28 16:31:56;;;;;;;;;;;;;;;;;;5110746;28;19923;-67
2021/08/28 16:34:24;;;;;;;;;;;;;;;;;;5113357;28;20302;-67
2021/08/28 16:36:50;;;;;;;;;;;;;;;;;;5113560;28;19927;-67
2021/08/28 16:39:16;;;;;;;;;;;;;;;;;;5113340;28;20386;-67